sensor_id;sensor_type;location;lat;lon;timestamp;pressure;altitude;pressure_sealevel;temperature;humidity
6615;BME280;3343;42.896;23.912;2023-04-24T00:01:02;73195.34;;;-145.80;65.94
6615;BME280;3343;42.896;23.912;2023-04-24T00:03:29;73253.53;;;-145.80;66.67
6615;BME280;3343;42.896;23.912;2023-04-24T00:05:55;73259.53;;;-145.80;66.93
6615;BME280;3343;42.896;23.912;2023-04-24T00:08:24;73239.47;;;-145.80;66.29
6615;BME280;3343;42.896;23.912;2023-04-24T00:10:51;73213.41;;;-145.80;65.88
6615;BME280;3343;42.896;23.912;2023-04-24T00:13:18;73183.31;;;-145.80;64.86
6615;BME280;3343;42.896;23.912;2023-04-24T00:15:45;73189.34;;;-145.80;65.29
6615;BME280;3343;42.896;23.912;2023-04-24T00:18:14;73217.41;;;-145.80;66.52
6615;BME280;3343;42.896;23.912;2023-04-24T00:20:40;73187.34;;;-145.80;65.09
6615;BME280;3343;42.896;23.912;2023-04-24T00:23:09;73183.31;;;-145.80;65.60
6615;BME280;3343;42.896;23.912;2023-04-24T00:25:35;73167.28;;;-145.80;65.38
6615;BME280;3343;42.896;23.912;2023-04-24T00:28:02;73207.38;;;-145.80;66.32
6615;BME280;3343;42.896;23.912;2023-04-24T00:30:29;73183.31;;;-145.80;65.72
6615;BME280;3343;42.896;23.912;2023-04-24T00:32:55;73193.34;;;-145.80;65.91
6615;BME280;3343;42.896;23.912;2023-04-24T00:35:24;73141.19;;;-145.80;65.33
6615;BME280;3343;42.896;23.912;2023-04-24T00:37:50;73149.22;;;-145.80;64.98
6615;BME280;3343;42.896;23.912;2023-04-24T00:40:17;73249.50;;;-145.80;66.99
6615;BME280;3343;42.896;23.912;2023-04-24T00:42:44;73171.28;;;-145.80;65.50
6615;BME280;3343;42.896;23.912;2023-04-24T00:45:11;73173.28;;;-145.80;65.45
6615;BME280;3343;42.896;23.912;2023-04-24T00:47:38;73243.50;;;-145.80;66.87
6615;BME280;3343;42.896;23.912;2023-04-24T00:50:06;73151.22;;;-145.80;64.92
6615;BME280;3343;42.896;23.912;2023-04-24T00:52:35;73161.25;;;-145.80;65.37
6615;BME280;3343;42.896;23.912;2023-04-24T00:55:02;73195.34;;;-145.80;65.58
6615;BME280;3343;42.896;23.912;2023-04-24T00:57:29;73143.22;;;-145.80;64.82
6615;BME280;3343;42.896;23.912;2023-04-24T00:59:57;73123.16;;;-145.80;64.24
6615;BME280;3343;42.896;23.912;2023-04-24T01:02:24;73149.22;;;-145.80;64.01
6615;BME280;3343;42.896;23.912;2023-04-24T01:04:51;73137.19;;;-145.80;63.77
6615;BME280;3343;42.896;23.912;2023-04-24T01:07:19;73097.09;;;-145.80;63.53
6615;BME280;3343;42.896;23.912;2023-04-24T01:09:48;73099.09;;;-145.80;63.63
6615;BME280;3343;42.896;23.912;2023-04-24T01:12:17;73135.19;;;-145.80;64.13
6615;BME280;3343;42.896;23.912;2023-04-24T01:14:44;73139.19;;;-145.80;64.58
6615;BME280;3343;42.896;23.912;2023-04-24T01:17:11;73179.31;;;-145.80;64.99
6615;BME280;3343;42.896;23.912;2023-04-24T01:19:38;73145.22;;;-145.80;64.48
6615;BME280;3343;42.896;23.912;2023-04-24T01:22:10;73153.25;;;-145.80;64.99
6615;BME280;3343;42.896;23.912;2023-04-24T01:24:37;73161.25;;;-145.80;64.23
6615;BME280;3343;42.896;23.912;2023-04-24T01:27:04;73169.28;;;-145.80;65.53
6615;BME280;3343;42.896;23.912;2023-04-24T01:29:31;73197.38;;;-145.80;65.35
6615;BME280;3343;42.896;23.912;2023-04-24T01:31:58;73185.31;;;-145.80;64.54
6615;BME280;3343;42.896;23.912;2023-04-24T01:34:25;73145.22;;;-145.80;64.25
6615;BME280;3343;42.896;23.912;2023-04-24T01:36:52;73137.19;;;-145.80;63.76
6615;BME280;3343;42.896;23.912;2023-04-24T01:39:20;73149.22;;;-145.80;64.74
6615;BME280;3343;42.896;23.912;2023-04-24T01:41:48;73167.28;;;-145.80;64.30
6615;BME280;3343;42.896;23.912;2023-04-24T01:44:16;73179.31;;;-145.80;64.17
6615;BME280;3343;42.896;23.912;2023-04-24T01:46:43;73169.28;;;-145.80;63.96
6615;BME280;3343;42.896;23.912;2023-04-24T01:49:10;73161.25;;;-145.80;63.86
6615;BME280;3343;42.896;23.912;2023-04-24T01:51:37;73273.56;;;-145.80;66.81
6615;BME280;3343;42.896;23.912;2023-04-24T01:54:04;73271.56;;;-145.80;67.32
6615;BME280;3343;42.896;23.912;2023-04-24T01:56:33;73215.41;;;-145.80;66.29
6615;BME280;3343;42.896;23.912;2023-04-24T01:59:02;73179.31;;;-145.80;65.15
6615;BME280;3343;42.896;23.912;2023-04-24T02:01:33;73169.28;;;-145.80;64.54
6615;BME280;3343;42.896;23.912;2023-04-24T02:04:01;73203.38;;;-145.80;65.17
6615;BME280;3343;42.896;23.912;2023-04-24T02:06:27;73205.38;;;-145.80;65.07
6615;BME280;3343;42.896;23.912;2023-04-24T02:08:54;73211.41;;;-145.80;64.40
6615;BME280;3343;42.896;23.912;2023-04-24T02:11:21;73193.34;;;-145.80;64.35
6615;BME280;3343;42.896;23.912;2023-04-24T02:13:49;73161.25;;;-145.80;63.75
6615;BME280;3343;42.896;23.912;2023-04-24T02:16:16;73185.31;;;-145.80;64.35
6615;BME280;3343;42.896;23.912;2023-04-24T02:18:43;73213.41;;;-145.80;64.75
6615;BME280;3343;42.896;23.912;2023-04-24T02:21:10;73205.38;;;-145.80;64.72
6615;BME280;3343;42.896;23.912;2023-04-24T02:23:37;73205.38;;;-145.80;64.61
6615;BME280;3343;42.896;23.912;2023-04-24T02:26:04;73331.75;;;-145.80;67.82
6615;BME280;3343;42.896;23.912;2023-04-24T02:28:30;73299.66;;;-145.80;67.96
6615;BME280;3343;42.896;23.912;2023-04-24T02:30:58;73251.50;;;-145.80;67.32
6615;BME280;3343;42.896;23.912;2023-04-24T02:33:25;73327.72;;;-145.80;68.83
6615;BME280;3343;42.896;23.912;2023-04-24T02:35:52;73291.63;;;-145.80;67.85
6615;BME280;3343;42.896;23.912;2023-04-24T02:38:19;73271.56;;;-145.80;67.11
6615;BME280;3343;42.896;23.912;2023-04-24T02:40:45;73287.63;;;-145.80;67.68
6615;BME280;3343;42.896;23.912;2023-04-24T02:43:12;73337.75;;;-145.80;68.88
6615;BME280;3343;42.896;23.912;2023-04-24T02:45:39;73289.63;;;-145.80;67.69
6615;BME280;3343;42.896;23.912;2023-04-24T02:48:07;73257.53;;;-145.80;67.25
6615;BME280;3343;42.896;23.912;2023-04-24T02:50:33;73271.56;;;-145.80;66.60
6615;BME280;3343;42.896;23.912;2023-04-24T02:53:00;73263.53;;;-145.80;66.10
6615;BME280;3343;42.896;23.912;2023-04-24T02:55:27;73243.50;;;-145.80;65.87
6615;BME280;3343;42.896;23.912;2023-04-24T02:57:54;73269.56;;;-145.80;66.25
6615;BME280;3343;42.896;23.912;2023-04-24T03:00:20;73353.81;;;-145.80;68.88
6615;BME280;3343;42.896;23.912;2023-04-24T03:02:47;73293.63;;;-145.80;66.96
6615;BME280;3343;42.896;23.912;2023-04-24T03:05:16;73273.56;;;-145.80;67.11
6615;BME280;3343;42.896;23.912;2023-04-24T03:07:43;73313.69;;;-145.80;67.73
6615;BME280;3343;42.896;23.912;2023-04-24T03:10:10;73275.56;;;-145.80;66.77
6615;BME280;3343;42.896;23.912;2023-04-24T03:12:37;73261.53;;;-145.80;66.18
6615;BME280;3343;42.896;23.912;2023-04-24T03:15:05;73247.50;;;-145.80;66.08
6615;BME280;3343;42.896;23.912;2023-04-24T03:17:31;73265.56;;;-145.80;66.00
6615;BME280;3343;42.896;23.912;2023-04-24T03:19:58;73273.56;;;-145.80;66.18
6615;BME280;3343;42.896;23.912;2023-04-24T03:22:26;73233.47;;;-145.80;65.77
6615;BME280;3343;42.896;23.912;2023-04-24T03:24:53;73333.75;;;-145.80;67.44
6615;BME280;3343;42.896;23.912;2023-04-24T03:27:20;73317.69;;;-145.80;67.66
6615;BME280;3343;42.896;23.912;2023-04-24T03:29:46;73345.78;;;-145.80;68.15
6615;BME280;3343;42.896;23.912;2023-04-24T03:32:13;73319.72;;;-145.80;67.67
6615;BME280;3343;42.896;23.912;2023-04-24T03:34:40;73287.63;;;-145.80;66.53
6615;BME280;3343;42.896;23.912;2023-04-24T03:37:06;73343.78;;;-145.80;67.87
6615;BME280;3343;42.896;23.912;2023-04-24T03:39:35;73353.81;;;-145.80;68.88
6615;BME280;3343;42.896;23.912;2023-04-24T03:42:01;73319.72;;;-145.80;67.56
6615;BME280;3343;42.896;23.912;2023-04-24T03:44:28;73329.72;;;-145.80;67.55
6615;BME280;3343;42.896;23.912;2023-04-24T03:46:55;73345.78;;;-145.80;67.86
6615;BME280;3343;42.896;23.912;2023-04-24T03:49:21;73347.78;;;-145.80;68.07
6615;BME280;3343;42.896;23.912;2023-04-24T03:51:48;73337.75;;;-145.80;67.62
6615;BME280;3343;42.896;23.912;2023-04-24T03:54:16;73315.69;;;-145.80;67.25
6615;BME280;3343;42.896;23.912;2023-04-24T03:56:44;73295.63;;;-145.80;67.02
6615;BME280;3343;42.896;23.912;2023-04-24T03:59:11;73341.78;;;-145.80;67.61
6615;BME280;3343;42.896;23.912;2023-04-24T04:01:38;73307.66;;;-145.80;67.04
6615;BME280;3343;42.896;23.912;2023-04-24T04:04:05;73285.59;;;-145.80;66.67
6615;BME280;3343;42.896;23.912;2023-04-24T04:06:33;73285.59;;;-145.80;66.53
6615;BME280;3343;42.896;23.912;2023-04-24T04:09:00;73325.72;;;-145.80;67.77
6615;BME280;3343;42.896;23.912;2023-04-24T04:11:26;73283.59;;;-145.80;66.99
6615;BME280;3343;42.896;23.912;2023-04-24T04:13:54;73243.50;;;-145.80;66.41
6615;BME280;3343;42.896;23.912;2023-04-24T04:16:22;73245.50;;;-145.80;66.13
6615;BME280;3343;42.896;23.912;2023-04-24T04:18:48;73297.66;;;-145.80;67.36
6615;BME280;3343;42.896;23.912;2023-04-24T04:21:15;73263.53;;;-145.80;66.98
6615;BME280;3343;42.896;23.912;2023-04-24T04:23:42;73233.47;;;-145.80;66.35
6615;BME280;3343;42.896;23.912;2023-04-24T04:26:08;73217.41;;;-145.80;66.40
6615;BME280;3343;42.896;23.912;2023-04-24T04:28:35;73257.53;;;-145.80;66.51
6615;BME280;3343;42.896;23.912;2023-04-24T04:31:04;73259.53;;;-145.80;67.65
6615;BME280;3343;42.896;23.912;2023-04-24T04:33:33;73285.59;;;-145.80;67.97
6615;BME280;3343;42.896;23.912;2023-04-24T04:36:01;73239.47;;;-145.80;67.44
6615;BME280;3343;42.896;23.912;2023-04-24T04:38:29;73215.41;;;-145.80;66.34
6615;BME280;3343;42.896;23.912;2023-04-24T04:40:56;73209.41;;;-145.80;66.45
6615;BME280;3343;42.896;23.912;2023-04-24T04:43:23;73239.47;;;-145.80;67.63
6615;BME280;3343;42.896;23.912;2023-04-24T04:45:50;73193.34;;;-145.80;66.53
6615;BME280;3343;42.896;23.912;2023-04-24T04:48:19;73169.28;;;-145.80;66.49
6615;BME280;3343;42.896;23.912;2023-04-24T04:50:45;73151.22;;;-145.80;66.46
6615;BME280;3343;42.896;23.912;2023-04-24T04:53:12;73113.13;;;-145.80;65.60
6615;BME280;3343;42.896;23.912;2023-04-24T04:55:39;73109.13;;;-145.80;65.02
6615;BME280;3343;42.896;23.912;2023-04-24T04:58:06;73113.13;;;-145.80;64.67
6615;BME280;3343;42.896;23.912;2023-04-24T05:00:33;73083.03;;;-145.80;64.73
6615;BME280;3343;42.896;23.912;2023-04-24T05:03:01;73067.00;;;-145.80;64.05
6615;BME280;3343;42.896;23.912;2023-04-24T05:05:29;73052.97;;;-145.80;64.16
6615;BME280;3343;42.896;23.912;2023-04-24T05:07:56;73065.00;;;-145.80;64.18
6615;BME280;3343;42.896;23.912;2023-04-24T05:10:22;73028.91;;;-145.80;63.03
6615;BME280;3343;42.896;23.912;2023-04-24T05:12:49;72998.81;;;-145.80;63.33
6615;BME280;3343;42.896;23.912;2023-04-24T05:15:16;72982.75;;;-145.80;62.88
6615;BME280;3343;42.896;23.912;2023-04-24T05:17:43;72982.75;;;-145.80;61.78
6615;BME280;3343;42.896;23.912;2023-04-24T05:20:10;72976.75;;;-145.80;60.97
6615;BME280;3343;42.896;23.912;2023-04-24T05:22:38;72926.63;;;-145.80;60.40
6615;BME280;3343;42.896;23.912;2023-04-24T05:25:05;72910.56;;;-145.80;60.20
6615;BME280;3343;42.896;23.912;2023-04-24T05:27:32;72850.41;;;-145.80;59.45
6615;BME280;3343;42.896;23.912;2023-04-24T05:29:58;72816.31;;;-145.80;57.47
6615;BME280;3343;42.896;23.912;2023-04-24T05:32:25;72780.22;;;-145.80;56.26
6615;BME280;3343;42.896;23.912;2023-04-24T05:34:52;72778.22;;;-145.80;54.88
6615;BME280;3343;42.896;23.912;2023-04-24T05:37:19;72762.16;;;-145.80;55.75
6615;BME280;3343;42.896;23.912;2023-04-24T05:39:47;72756.16;;;-145.80;53.84
6615;BME280;3343;42.896;23.912;2023-04-24T05:42:13;72782.22;;;-145.80;53.33
6615;BME280;3343;42.896;23.912;2023-04-24T05:44:40;72760.16;;;-145.80;55.79
6615;BME280;3343;42.896;23.912;2023-04-24T05:47:07;72746.13;;;-145.80;52.54
6615;BME280;3343;42.896;23.912;2023-04-24T05:49:33;72724.06;;;-145.80;52.01
6615;BME280;3343;42.896;23.912;2023-04-24T05:52:00;72693.97;;;-145.80;54.04
6615;BME280;3343;42.896;23.912;2023-04-24T05:54:29;72696.00;;;-145.80;52.95
6615;BME280;3343;42.896;23.912;2023-04-24T05:56:57;72673.94;;;-145.80;52.14
6615;BME280;3343;42.896;23.912;2023-04-24T05:59:24;72708.03;;;-145.80;54.77
6615;BME280;3343;42.896;23.912;2023-04-24T06:01:51;72704.00;;;-145.80;56.87
6615;BME280;3343;42.896;23.912;2023-04-24T06:04:17;72683.97;;;-145.80;56.92
6615;BME280;3343;42.896;23.912;2023-04-24T06:06:44;72685.97;;;-145.80;56.53
6615;BME280;3343;42.896;23.912;2023-04-24T06:09:11;72693.97;;;-145.80;58.01
6615;BME280;3343;42.896;23.912;2023-04-24T06:11:38;72704.00;;;-145.80;58.97
6615;BME280;3343;42.896;23.912;2023-04-24T06:14:06;72663.91;;;-145.80;59.20
6615;BME280;3343;42.896;23.912;2023-04-24T06:16:33;72661.91;;;-145.80;55.76
6615;BME280;3343;42.896;23.912;2023-04-24T06:18:59;72665.91;;;-145.80;53.88
6615;BME280;3343;42.896;23.912;2023-04-24T06:21:26;72623.81;;;-145.80;49.85
6615;BME280;3343;42.896;23.912;2023-04-24T06:23:53;72585.69;;;-145.80;44.65
6615;BME280;3343;42.896;23.912;2023-04-24T06:26:21;72571.66;;;-145.80;44.92
6615;BME280;3343;42.896;23.912;2023-04-24T06:28:50;72539.56;;;-145.80;43.79
6615;BME280;3343;42.896;23.912;2023-04-24T06:31:18;72483.44;;;-145.80;40.66
6615;BME280;3343;42.896;23.912;2023-04-24T06:33:44;72457.38;;;-145.80;38.01
6615;BME280;3343;42.896;23.912;2023-04-24T06:36:11;72391.19;;;-145.80;38.80
6615;BME280;3343;42.896;23.912;2023-04-24T06:38:38;72308.97;;;-145.80;36.62
6615;BME280;3343;42.896;23.912;2023-04-24T06:41:05;72347.09;;;-145.80;37.11
6615;BME280;3343;42.896;23.912;2023-04-24T06:43:32;72280.91;;;-145.80;38.99
6615;BME280;3343;42.896;23.912;2023-04-24T06:45:59;72194.69;;;-145.80;36.45
6615;BME280;3343;42.896;23.912;2023-04-24T06:48:27;72196.69;;;-145.80;35.38
6615;BME280;3343;42.896;23.912;2023-04-24T06:50:53;72331.03;;;-145.80;35.19
6615;BME280;3343;42.896;23.912;2023-04-24T06:53:20;72401.22;;;-145.80;36.59
6615;BME280;3343;42.896;23.912;2023-04-24T06:55:47;72483.44;;;-145.80;37.81
6615;BME280;3343;42.896;23.912;2023-04-24T06:58:14;72521.53;;;-145.80;38.67
6615;BME280;3343;42.896;23.912;2023-04-24T07:00:41;72499.47;;;-145.80;39.67
6615;BME280;3343;42.896;23.912;2023-04-24T07:03:08;72519.53;;;-145.80;39.25
6615;BME280;3343;42.896;23.912;2023-04-24T07:05:36;72491.44;;;-145.80;39.17
6615;BME280;3343;42.896;23.912;2023-04-24T07:08:03;72551.59;;;-145.80;39.37
6615;BME280;3343;42.896;23.912;2023-04-24T07:10:32;72579.69;;;-145.80;40.34
6615;BME280;3343;42.896;23.912;2023-04-24T07:12:59;72597.72;;;-145.80;41.67
6615;BME280;3343;42.896;23.912;2023-04-24T07:15:26;72589.72;;;-145.80;42.09
6615;BME280;3343;42.896;23.912;2023-04-24T07:17:53;72543.59;;;-145.80;42.39
6615;BME280;3343;42.896;23.912;2023-04-24T07:20:20;72499.47;;;-145.80;40.81
6615;BME280;3343;42.896;23.912;2023-04-24T07:22:48;72407.22;;;-145.80;39.72
6615;BME280;3343;42.896;23.912;2023-04-24T07:25:15;72383.16;;;-145.80;41.09
6615;BME280;3343;42.896;23.912;2023-04-24T07:27:41;72391.19;;;-145.80;40.05
6615;BME280;3343;42.896;23.912;2023-04-24T07:30:09;72391.19;;;-145.80;40.23
6615;BME280;3343;42.896;23.912;2023-04-24T07:32:36;72397.22;;;-145.80;40.73
6615;BME280;3343;42.896;23.912;2023-04-24T07:35:02;72375.16;;;-145.80;41.02
6615;BME280;3343;42.896;23.912;2023-04-24T07:37:29;72375.16;;;-145.80;40.56
6615;BME280;3343;42.896;23.912;2023-04-24T07:39:57;72377.16;;;-145.80;40.08
6615;BME280;3343;42.896;23.912;2023-04-24T07:42:24;72379.16;;;-145.80;39.10
6615;BME280;3343;42.896;23.912;2023-04-24T07:44:51;72321.00;;;-145.80;39.40
6615;BME280;3343;42.896;23.912;2023-04-24T07:47:18;72311.00;;;-145.80;37.48
6615;BME280;3343;42.896;23.912;2023-04-24T07:49:44;72268.88;;;-145.80;38.67
6615;BME280;3343;42.896;23.912;2023-04-24T07:52:11;72228.78;;;-145.80;36.22
6615;BME280;3343;42.896;23.912;2023-04-24T07:54:38;72200.72;;;-145.80;37.13
6615;BME280;3343;42.896;23.912;2023-04-24T07:57:06;72150.59;;;-145.80;38.44
6615;BME280;3343;42.896;23.912;2023-04-24T07:59:33;72088.44;;;-145.80;37.21
6615;BME280;3343;42.896;23.912;2023-04-24T08:02:00;72090.44;;;-145.80;35.88
6615;BME280;3343;42.896;23.912;2023-04-24T08:04:27;72092.44;;;-145.80;37.04
6615;BME280;3343;42.896;23.912;2023-04-24T08:06:54;72064.38;;;-145.80;36.97
6615;BME280;3343;42.896;23.912;2023-04-24T08:09:20;72000.22;;;-145.80;36.39
6615;BME280;3343;42.896;23.912;2023-04-24T08:11:47;71982.16;;;-145.80;33.42
6615;BME280;3343;42.896;23.912;2023-04-24T08:14:15;71986.19;;;-145.80;34.33
6615;BME280;3343;42.896;23.912;2023-04-24T08:16:42;72052.34;;;-145.80;34.14
6615;BME280;3343;42.896;23.912;2023-04-24T08:19:09;72100.47;;;-145.80;34.59
6615;BME280;3343;42.896;23.912;2023-04-24T08:21:36;72146.56;;;-145.80;34.63
6615;BME280;3343;42.896;23.912;2023-04-24T08:24:02;72134.53;;;-145.80;35.43
6615;BME280;3343;42.896;23.912;2023-04-24T08:26:33;72136.56;;;-145.80;38.03
6615;BME280;3343;42.896;23.912;2023-04-24T08:28:59;72138.56;;;-145.80;35.41
6615;BME280;3343;42.896;23.912;2023-04-24T08:31:27;72106.47;;;-145.80;37.49
6615;BME280;3343;42.896;23.912;2023-04-24T08:33:54;72102.47;;;-145.80;38.98
6615;BME280;3343;42.896;23.912;2023-04-24T08:36:21;72098.44;;;-145.80;38.19
6615;BME280;3343;42.896;23.912;2023-04-24T08:38:48;72078.41;;;-145.80;36.89
6615;BME280;3343;42.896;23.912;2023-04-24T08:41:15;72114.50;;;-145.80;35.95
6615;BME280;3343;42.896;23.912;2023-04-24T08:43:45;72078.41;;;-145.80;37.38
6615;BME280;3343;42.896;23.912;2023-04-24T08:46:13;72098.44;;;-145.80;36.13
6615;BME280;3343;42.896;23.912;2023-04-24T08:48:42;72194.69;;;-145.80;38.74
6615;BME280;3343;42.896;23.912;2023-04-24T08:51:09;72282.91;;;-145.80;39.13
6615;BME280;3343;42.896;23.912;2023-04-24T08:53:36;72180.66;;;-145.80;40.07
6615;BME280;3343;42.896;23.912;2023-04-24T08:56:03;72138.56;;;-145.80;38.48
6615;BME280;3343;42.896;23.912;2023-04-24T08:58:31;72086.44;;;-145.80;37.09
6615;BME280;3343;42.896;23.912;2023-04-24T09:00:58;72016.25;;;-145.80;35.69
6615;BME280;3343;42.896;23.912;2023-04-24T09:03:27;71962.13;;;-145.80;34.18
6615;BME280;3343;42.896;23.912;2023-04-24T09:05:55;71873.91;;;-145.80;35.03
6615;BME280;3343;42.896;23.912;2023-04-24T09:08:25;71881.94;;;-145.80;34.36
6615;BME280;3343;42.896;23.912;2023-04-24T09:10:52;71853.84;;;-145.80;33.07
6615;BME280;3343;42.896;23.912;2023-04-24T09:13:19;71811.75;;;-145.80;33.72
6615;BME280;3343;42.896;23.912;2023-04-24T09:15:46;71821.78;;;-145.80;33.45
6615;BME280;3343;42.896;23.912;2023-04-24T09:18:12;71773.66;;;-145.80;32.33
6615;BME280;3343;42.896;23.912;2023-04-24T09:20:58;71697.47;;;-145.80;32.26
6615;BME280;3343;42.896;23.912;2023-04-24T09:23:26;71663.41;;;-145.80;33.01
6615;BME280;3343;42.896;23.912;2023-04-24T09:25:54;71609.28;;;-145.80;32.27
6615;BME280;3343;42.896;23.912;2023-04-24T09:28:25;71641.34;;;-145.80;32.07
6615;BME280;3343;42.896;23.912;2023-04-24T09:31:05;71649.38;;;-145.80;31.96
6615;BME280;3343;42.896;23.912;2023-04-24T09:33:33;71667.41;;;-145.80;32.23
6615;BME280;3343;42.896;23.912;2023-04-24T09:36:01;71687.47;;;-145.80;31.52
6615;BME280;3343;42.896;23.912;2023-04-24T09:38:32;71717.53;;;-145.80;31.28
6615;BME280;3343;42.896;23.912;2023-04-24T09:41:00;71741.59;;;-145.80;31.59
6615;BME280;3343;42.896;23.912;2023-04-24T09:43:28;71781.69;;;-145.80;31.76
6615;BME280;3343;42.896;23.912;2023-04-24T09:45:56;71781.69;;;-145.80;33.29
6615;BME280;3343;42.896;23.912;2023-04-24T09:48:33;71761.63;;;-145.80;30.88
6615;BME280;3343;42.896;23.912;2023-04-24T09:51:03;71785.69;;;-145.80;30.96
6615;BME280;3343;42.896;23.912;2023-04-24T09:53:32;71783.69;;;-145.80;31.66
6615;BME280;3343;42.896;23.912;2023-04-24T09:56:02;71753.63;;;-145.80;31.50
6615;BME280;3343;42.896;23.912;2023-04-24T09:58:29;71787.69;;;-145.80;31.14
6615;BME280;3343;42.896;23.912;2023-04-24T10:00:56;71831.81;;;-145.80;31.24
6615;BME280;3343;42.896;23.912;2023-04-24T10:03:25;71799.72;;;-145.80;31.21
6615;BME280;3343;42.896;23.912;2023-04-24T10:05:58;71747.59;;;-145.80;32.09
6615;BME280;3343;42.896;23.912;2023-04-24T10:08:32;71709.50;;;-145.80;31.70
6615;BME280;3343;42.896;23.912;2023-04-24T10:10:59;71733.56;;;-145.80;29.78
6615;BME280;3343;42.896;23.912;2023-04-24T10:13:27;71725.53;;;-145.80;30.50
6615;BME280;3343;42.896;23.912;2023-04-24T10:15:56;71687.47;;;-145.80;29.58
6615;BME280;3343;42.896;23.912;2023-04-24T10:18:23;71711.50;;;-145.80;30.09
6615;BME280;3343;42.896;23.912;2023-04-24T10:20:50;71721.53;;;-145.80;30.27
6615;BME280;3343;42.896;23.912;2023-04-24T10:23:20;71723.53;;;-145.80;29.43
6615;BME280;3343;42.896;23.912;2023-04-24T10:25:48;71695.47;;;-145.80;30.65
6615;BME280;3343;42.896;23.912;2023-04-24T10:28:17;71665.41;;;-145.80;29.82
6615;BME280;3343;42.896;23.912;2023-04-24T10:30:45;71661.41;;;-145.80;30.15
6615;BME280;3343;42.896;23.912;2023-04-24T10:33:12;71669.41;;;-145.80;29.32
6615;BME280;3343;42.896;23.912;2023-04-24T10:35:42;71649.38;;;-145.80;29.59
6615;BME280;3343;42.896;23.912;2023-04-24T10:38:12;71665.41;;;-145.80;29.60
6615;BME280;3343;42.896;23.912;2023-04-24T10:40:39;71693.47;;;-145.80;29.17
6615;BME280;3343;42.896;23.912;2023-04-24T10:43:08;71641.34;;;-145.80;29.50
6615;BME280;3343;42.896;23.912;2023-04-24T10:45:37;71605.25;;;-145.80;30.17
6615;BME280;3343;42.896;23.912;2023-04-24T10:48:05;71541.13;;;-145.80;29.76
6615;BME280;3343;42.896;23.912;2023-04-24T10:50:43;71464.94;;;-145.80;27.85
6615;BME280;3343;42.896;23.912;2023-04-24T10:53:14;71505.03;;;-145.80;28.50
6615;BME280;3343;42.896;23.912;2023-04-24T10:55:46;71509.03;;;-145.80;28.46
6615;BME280;3343;42.896;23.912;2023-04-24T10:58:15;71529.09;;;-145.80;28.96
6615;BME280;3343;42.896;23.912;2023-04-24T11:00:43;71511.03;;;-145.80;28.16
6615;BME280;3343;42.896;23.912;2023-04-24T11:03:25;71482.97;;;-145.80;28.54
6615;BME280;3343;42.896;23.912;2023-04-24T11:05:55;71521.06;;;-145.80;28.45
6615;BME280;3343;42.896;23.912;2023-04-24T11:08:25;71501.03;;;-145.80;29.55
6615;BME280;3343;42.896;23.912;2023-04-24T11:10:57;71452.91;;;-145.80;28.55
6615;BME280;3343;42.896;23.912;2023-04-24T11:13:27;71420.84;;;-145.80;29.46
6615;BME280;3343;42.896;23.912;2023-04-24T11:16:13;71384.75;;;-145.80;28.14
6615;BME280;3343;42.896;23.912;2023-04-24T11:18:42;71392.78;;;-145.80;29.12
6615;BME280;3343;42.896;23.912;2023-04-24T11:21:11;71312.59;;;-145.80;28.25
6615;BME280;3343;42.896;23.912;2023-04-24T11:23:39;71356.69;;;-145.80;28.02
6615;BME280;3343;42.896;23.912;2023-04-24T11:26:18;71312.59;;;-145.80;28.51
6615;BME280;3343;42.896;23.912;2023-04-24T11:28:47;71324.63;;;-145.80;28.02
6615;BME280;3343;42.896;23.912;2023-04-24T11:31:35;71288.53;;;-145.80;27.12
6615;BME280;3343;42.896;23.912;2023-04-24T11:34:07;71302.56;;;-145.80;26.77
6615;BME280;3343;42.896;23.912;2023-04-24T11:36:35;71338.66;;;-145.80;26.78
6615;BME280;3343;42.896;23.912;2023-04-24T11:39:02;71362.72;;;-145.80;27.82
6615;BME280;3343;42.896;23.912;2023-04-24T11:41:28;71346.66;;;-145.80;27.46
6615;BME280;3343;42.896;23.912;2023-04-24T11:43:57;71256.47;;;-145.80;27.92
6615;BME280;3343;42.896;23.912;2023-04-24T11:46:27;71118.16;;;-145.80;26.59
6615;BME280;3343;42.896;23.912;2023-04-24T11:48:55;71088.09;;;-145.80;26.47
6615;BME280;3343;42.896;23.912;2023-04-24T11:51:23;71146.22;;;-145.80;26.22
6615;BME280;3343;42.896;23.912;2023-04-24T11:53:52;71196.34;;;-145.80;25.94
6615;BME280;3343;42.896;23.912;2023-04-24T11:56:19;71236.41;;;-145.80;26.19
6615;BME280;3343;42.896;23.912;2023-04-24T11:58:46;71274.50;;;-145.80;26.87
6615;BME280;3343;42.896;23.912;2023-04-24T12:01:14;71360.69;;;-145.80;26.89
6615;BME280;3343;42.896;23.912;2023-04-24T12:03:43;71364.72;;;-145.80;27.39
6615;BME280;3343;42.896;23.912;2023-04-24T12:06:13;71330.63;;;-145.80;28.07
6615;BME280;3343;42.896;23.912;2023-04-24T12:08:40;71306.59;;;-145.80;27.82
6615;BME280;3343;42.896;23.912;2023-04-24T12:11:07;71328.63;;;-145.80;26.86
6615;BME280;3343;42.896;23.912;2023-04-24T12:13:35;71360.69;;;-145.80;26.65
6615;BME280;3343;42.896;23.912;2023-04-24T12:16:03;71400.78;;;-145.80;26.72
6615;BME280;3343;42.896;23.912;2023-04-24T12:18:32;71388.75;;;-145.80;27.42
6615;BME280;3343;42.896;23.912;2023-04-24T12:21:18;71356.69;;;-145.80;27.54
6615;BME280;3343;42.896;23.912;2023-04-24T12:23:45;71384.75;;;-145.80;27.26
6615;BME280;3343;42.896;23.912;2023-04-24T12:26:16;71368.72;;;-145.80;28.35
6615;BME280;3343;42.896;23.912;2023-04-24T12:28:45;71384.75;;;-145.80;29.89
6615;BME280;3343;42.896;23.912;2023-04-24T12:31:12;71404.81;;;-145.80;29.48
6615;BME280;3343;42.896;23.912;2023-04-24T12:33:41;71384.75;;;-145.80;28.84
6615;BME280;3343;42.896;23.912;2023-04-24T12:36:10;71426.84;;;-145.80;28.76
6615;BME280;3343;42.896;23.912;2023-04-24T12:38:37;71464.94;;;-145.80;28.68
6615;BME280;3343;42.896;23.912;2023-04-24T12:41:07;71487.00;;;-145.80;30.08
6615;BME280;3343;42.896;23.912;2023-04-24T12:43:34;71513.06;;;-145.80;30.93
6615;BME280;3343;42.896;23.912;2023-04-24T12:46:01;71623.31;;;-145.80;31.57
6615;BME280;3343;42.896;23.912;2023-04-24T12:48:28;71757.63;;;-145.80;32.98
6615;BME280;3343;42.896;23.912;2023-04-24T12:50:58;71877.91;;;-145.80;37.59
6615;BME280;3343;42.896;23.912;2023-04-24T12:53:27;71970.13;;;-145.80;41.14